CMA CGM G.washington — MAPY4 — position and weather

sailwx.info

Track history (hours):
 
Tides and Currents Weather Stations Pressure Air Temp Water Temp Dewpoint Dewpoint Depression Visibility Wind Speed Wind Dir Waves Ship Positions

CMA CGM G.washington

Last reported at 2018-Jun-18 13:30 UTC. Time now 2018-Jun-18 13:38 UTC.
Position N 37°48' W 122°19'.

Length 366 m; draft 12 m.

Type: Ship (hazmat cat A). MMSI: 232006508.

Date/timePositionNaut miles runAvg speedWind from/ knotsBaromVisibWave heightAir tempDewpointWater temp
2018-Jun-18 13:30N 37°48' W 122°19'0 0.0
2018-Jun-18 13:00N 37°48' W 122°19'0 0.0
2018-Jun-18 12:30N 37°48' W 122°19'0 0.0
2018-Jun-18 12:00N 37°48' W 122°19'0 0.0
2018-Jun-18 11:30N 37°48' W 122°19'0 0.0
2018-Jun-18 11:00N 37°48' W 122°19'0 0.0
2018-Jun-18 10:30N 37°48' W 122°19'0 0.0
2018-Jun-18 10:00N 37°48' W 122°19'0 0.0
2018-Jun-18 09:30N 37°48' W 122°19'0 0.0
2018-Jun-18 09:00N 37°48' W 122°19'0 0.0
2018-Jun-18 08:30N 37°48' W 122°19'0 0.0
2018-Jun-18 08:00N 37°48' W 122°19'0 0.0
2018-Jun-18 07:30N 37°48' W 122°19'0 0.0
2018-Jun-18 06:57N 37°48' W 122°19'0 0.0
2018-Jun-18 06:30N 37°48' W 122°19'0 0.0
2018-Jun-18 06:00N 37°48' W 122°19'0 0.0
2018-Jun-18 05:30N 37°48' W 122°19'0 0.0
2018-Jun-18 05:00N 37°48' W 122°19'0 0.0
2018-Jun-18 04:30N 37°48' W 122°19'0 0.0
2018-Jun-18 04:00N 37°48' W 122°19'0 0.0
2018-Jun-18 03:30N 37°48' W 122°19'0 0.0
2018-Jun-18 03:00N 37°48' W 122°19'0 0.0
2018-Jun-18 02:30N 37°48' W 122°19'0 0.2
2018-Jun-18 02:00N 37°48' W 122°19'1 2.3
2018-Jun-18 01:30N 37°48' W 122°17'1 1.9
2018-Jun-18 01:00N 37°48' W 122°19'3 5.1
2018-Jun-18 00:30N 37°48' W 122°22'5 9.1
2018-Jun-18 00:00N 37°49' W 122°27'5 9.3
2018-Jun-17 23:30N 37°47' W 122°33'611.5
2018-Jun-17 23:00N 37°45' W 122°40'5 9.7
2018-Jun-17 22:30N 37°40' W 122°40'611.6
2018-Jun-17 22:00N 37°35' W 122°40'611.5
2018-Jun-17 21:30N 37°29' W 122°40'611.7
2018-Jun-17 21:00N 37°23' W 122°40'611.8
2018-Jun-17 20:30N 37°17' W 122°40'611.9
2018-Jun-17 20:00N 37°11' W 122°39'611.2
2018-Jun-17 19:30N 37°06' W 122°37'511.0
2018-Jun-17 19:00N 37°01' W 122°34'611.7
2018-Jun-17 18:28N 36°55' W 122°31'511.4
2018-Jun-17 18:00N 36°50' W 122°29'9812.5
2018-Jun-17 10:10N 35°23' W 121°33'212.8
2018-Jun-17 10:00N 35°21' W 121°31'612.6
2018-Jun-17 09:30N 35°16' W 121°27'612.4
2018-Jun-17 09:00N 35°11' W 121°24'612.6
2018-Jun-17 08:30N 35°05' W 121°20'612.8
2018-Jun-17 08:00N 34°60' W 121°16'612.6
2018-Jun-17 07:30N 34°54' W 121°12'612.5
2018-Jun-17 07:00N 34°49' W 121°08'612.6
2018-Jun-17 06:30N 34°43' W 121°04'612.8
2018-Jun-17 06:00N 34°38' W 121°00'612.7
2018-Jun-17 05:30N 34°32' W 120°56'612.7
2018-Jun-17 05:00N 34°27' W 120°53'712.8
2018-Jun-17 04:29N 34°25' W 120°45'612.7
2018-Jun-17 03:59N 34°23' W 120°37'612.4
2018-Jun-17 03:30N 34°21' W 120°30'612.6
2018-Jun-17 03:00N 34°20' W 120°23'612.5
2018-Jun-17 02:30N 34°18' W 120°16'612.5
2018-Jun-17 02:00N 34°17' W 120°08'5 8.9
2018-Jun-17 01:29N 34°17' W 120°03'0 0.3
2018-Jun-17 00:56N 34°17' W 120°03'0 1.1
2018-Jun-17 00:29N 34°17' W 120°03'0 0.5
2018-Jun-16 23:55N 34°16' W 120°03'0 0.3
2018-Jun-16 23:27N 34°16' W 120°03'0 0.6
2018-Jun-16 22:56N 34°16' W 120°03'0 0.5
2018-Jun-16 22:29N 34°16' W 120°04'2 2.7
2018-Jun-16 21:49N 34°15' W 120°02'510.7
2018-Jun-16 21:23N 34°14' W 119°56'411.7
2018-Jun-16 21:00N 34°13' W 119°51'611.5
2018-Jun-16 20:29N 34°11' W 119°44'611.5
2018-Jun-16 19:56N 34°10' W 119°37'512.1
2018-Jun-16 19:30N 34°08' W 119°31'612.2
2018-Jun-16 19:00N 34°07' W 119°24'612.3
2018-Jun-16 18:30N 34°04' W 119°17'612.0
2018-Jun-16 17:59N 34°02' W 119°10'611.8
2018-Jun-16 17:26N 33°59' W 119°03'511.6
2018-Jun-16 17:00N 33°56' W 118°58'611.5
2018-Jun-16 16:30N 33°53' W 118°52'611.5
2018-Jun-16 16:00N 33°50' W 118°46'611.5
2018-Jun-16 15:30N 33°48' W 118°40'611.7
2018-Jun-16 15:00N 33°45' W 118°34'611.5
2018-Jun-16 14:30N 33°42' W 118°28'611.4
2018-Jun-16 14:00N 33°39' W 118°22'5 9.8
2018-Jun-16 13:30N 33°40' W 118°16'3 6.3
2018-Jun-16 13:00N 33°43' W 118°15'1 2.1
2018-Jun-16 12:28N 33°44' W 118°15'0 0.0
2018-Jun-16 11:58N 33°44' W 118°15'0 0.0
2018-Jun-16 11:28N 33°44' W 118°15'0 0.0
2018-Jun-16 10:58N 33°44' W 118°15'0 0.0
2018-Jun-16 10:28N 33°44' W 118°15'0 0.0
2018-Jun-16 09:58N 33°44' W 118°15'0 0.0
2018-Jun-16 09:28N 33°44' W 118°15'0 0.0
2018-Jun-16 08:58N 33°44' W 118°15'0 0.0
2018-Jun-16 08:28N 33°44' W 118°15'0 0.0
2018-Jun-16 07:58N 33°44' W 118°15'0 0.0
2018-Jun-16 07:28N 33°44' W 118°15'0 0.0
2018-Jun-16 06:55N 33°44' W 118°15'0 0.0
2018-Jun-16 06:25N 33°44' W 118°15'0 0.0
2018-Jun-16 05:58N 33°44' W 118°15'0 0.0
2018-Jun-16 05:28N 33°44' W 118°15'0 0.0
2018-Jun-16 04:58N 33°44' W 118°15'0 0.0
2018-Jun-16 04:28N 33°44' W 118°15'0 0.0
2018-Jun-16 03:55N 33°44' W 118°15'0 0.0
2018-Jun-16 03:25N 33°44' W 118°15'0 0.0
2018-Jun-16 02:58N 33°44' W 118°15'0 0.0
2018-Jun-16 02:28N 33°44' W 118°15'0 0.0
2018-Jun-16 01:58N 33°44' W 118°15'0 0.0
2018-Jun-16 01:28N 33°44' W 118°15'0 0.0
2018-Jun-16 00:58N 33°44' W 118°15'0 0.0
2018-Jun-16 00:28N 33°44' W 118°15'0 0.0
2018-Jun-15 23:58N 33°44' W 118°15'0 0.0
2018-Jun-15 23:28N 33°44' W 118°15'0 0.0
2018-Jun-15 22:58N 33°44' W 118°15'0 0.0
2018-Jun-15 22:28N 33°44' W 118°15'0 0.0
2018-Jun-15 21:58N 33°44' W 118°15'0 0.0
2018-Jun-15 21:28N 33°44' W 118°15'0 0.0
2018-Jun-15 20:58N 33°44' W 118°15'0 0.0
2018-Jun-15 20:28N 33°44' W 118°15'0 0.0
2018-Jun-15 19:58N 33°44' W 118°15'0 0.0
2018-Jun-15 19:28N 33°44' W 118°15'0 0.0
2018-Jun-15 18:58N 33°44' W 118°15'0 0.0
2018-Jun-15 18:25N 33°44' W 118°15'0 0.0
2018-Jun-15 17:58N 33°44' W 118°15'0 0.0
2018-Jun-15 17:29N 33°44' W 118°15'0 0.0
2018-Jun-15 16:59N 33°44' W 118°15'0 0.0
2018-Jun-15 16:29N 33°44' W 118°15'0 0.0
2018-Jun-15 15:59N 33°44' W 118°15'0 0.0
2018-Jun-15 15:29N 33°44' W 118°15'0 0.0
2018-Jun-15 14:59N 33°44' W 118°15'0 0.0
2018-Jun-15 14:29N 33°44' W 118°15'0 0.0
2018-Jun-15 13:59N 33°44' W 118°15'0 0.0
2018-Jun-15 13:29N 33°44' W 118°15'0 0.0
2018-Jun-15 12:59N 33°44' W 118°15'0 0.0
2018-Jun-15 12:29N 33°44' W 118°15'0 0.0
2018-Jun-15 11:59N 33°44' W 118°15'0 0.0
2018-Jun-15 11:29N 33°44' W 118°15'0 0.0
2018-Jun-15 10:59N 33°44' W 118°15'0 0.0
2018-Jun-15 10:29N 33°44' W 118°15'0 0.0
2018-Jun-15 09:56N 33°44' W 118°15'0 0.0
2018-Jun-15 09:29N 33°44' W 118°15'0 0.0
2018-Jun-15 08:59N 33°44' W 118°15'0 0.0
2018-Jun-15 08:23N 33°44' W 118°15'0 0.0
2018-Jun-15 07:59N 33°44' W 118°15'0 0.0
2018-Jun-15 07:29N 33°44' W 118°15'0 0.0
2018-Jun-15 06:59N 33°44' W 118°15'0 0.0
2018-Jun-15 06:29N 33°44' W 118°15'0 0.0
2018-Jun-15 05:59N 33°44' W 118°15'0 0.0
2018-Jun-15 05:29N 33°44' W 118°15'0 0.0
2018-Jun-15 04:59N 33°44' W 118°15'0 0.0
2018-Jun-15 04:29N 33°44' W 118°15'0 0.0
2018-Jun-15 03:59N 33°44' W 118°15'0 0.0
2018-Jun-15 03:29N 33°44' W 118°15'0 0.0
2018-Jun-15 02:56N 33°44' W 118°15'0 0.0
2018-Jun-15 02:29N 33°44' W 118°15'0 0.0
2018-Jun-15 01:59N 33°44' W 118°15'0 0.0
2018-Jun-15 01:29N 33°44' W 118°15'0 0.0
2018-Jun-15 00:59N 33°44' W 118°15'0 0.0
2018-Jun-15 00:29N 33°44' W 118°15'0 0.0
2018-Jun-14 23:59N 33°44' W 118°15'0 0.0
2018-Jun-14 23:30N 33°44' W 118°15'0 0.0
2018-Jun-14 23:00N 33°44' W 118°15'0 0.0
2018-Jun-14 22:30N 33°44' W 118°15'0 0.0
2018-Jun-14 22:00N 33°44' W 118°15'0 0.0
2018-Jun-14 21:30N 33°44' W 118°15'0 0.0
2018-Jun-14 20:59N 33°44' W 118°15'0 0.0
2018-Jun-14 20:30N 33°44' W 118°15'0 0.0
2018-Jun-14 20:00N 33°44' W 118°15'0 0.0
2018-Jun-14 19:30N 33°44' W 118°15'0 0.0
2018-Jun-14 18:59N 33°44' W 118°15'0 0.0
2018-Jun-14 18:29N 33°44' W 118°15'0 0.0
2018-Jun-14 18:00N 33°44' W 118°15'0 0.0
2018-Jun-14 17:30N 33°44' W 118°15'0 0.0
2018-Jun-14 17:00N 33°44' W 118°15'0 0.0
2018-Jun-14 16:30N 33°44' W 118°15'0 0.0
2018-Jun-14 16:00N 33°44' W 118°15'0 0.0
2018-Jun-14 15:29N 33°44' W 118°15'0 0.0
2018-Jun-14 14:59N 33°44' W 118°15'0 0.0
2018-Jun-14 14:30N 33°44' W 118°15'0 0.0
2018-Jun-14 14:00N 33°44' W 118°15'0 0.0
2018-Jun-14 13:27N 33°44' W 118°15'0 0.0
2018-Jun-14 12:59N 33°44' W 118°15'0 0.0
2018-Jun-14 12:30N 33°44' W 118°15'0 0.0
2018-Jun-14 12:00N 33°44' W 118°15'0 0.0
2018-Jun-14 11:29N 33°44' W 118°15'0 0.0
2018-Jun-14 10:59N 33°44' W 118°15'0 0.0
2018-Jun-14 10:30N 33°44' W 118°15'0 0.0
2018-Jun-14 10:00N 33°44' W 118°15'0 0.0
2018-Jun-14 09:29N 33°44' W 118°15'0 0.0
2018-Jun-14 08:59N 33°44' W 118°15'0 0.0
2018-Jun-14 08:30N 33°44' W 118°15'0 0.0
2018-Jun-14 07:59N 33°44' W 118°15'0 0.0
2018-Jun-14 07:30N 33°44' W 118°15'0 0.0
2018-Jun-14 06:59N 33°44' W 118°15'0 0.0
2018-Jun-14 06:30N 33°44' W 118°15'0 0.0
2018-Jun-14 06:00N 33°44' W 118°15'0 0.0
2018-Jun-14 05:29N 33°44' W 118°15'0 0.0
2018-Jun-14 05:00N 33°44' W 118°15'0 0.0
2018-Jun-14 04:30N 33°44' W 118°15'0 0.0
2018-Jun-14 04:00N 33°44' W 118°15'0 0.0
2018-Jun-14 03:30N 33°44' W 118°15'0 0.0
2018-Jun-14 02:56N 33°44' W 118°15'0 0.0
2018-Jun-14 02:29N 33°44' W 118°15'0 0.0
2018-Jun-14 01:59N 33°44' W 118°15'0 0.0
2018-Jun-14 01:29N 33°44' W 118°15'0 0.0
2018-Jun-14 01:00N 33°44' W 118°15'0 0.0
2018-Jun-14 00:29N 33°44' W 118°15'0 0.0
2018-Jun-14 00:00N 33°44' W 118°15'0 0.0
2018-Jun-13 23:29N 33°44' W 118°15'0 0.0
2018-Jun-13 23:00N 33°44' W 118°15'0 0.0
2018-Jun-13 22:25N 33°44' W 118°15'0 0.0
2018-Jun-13 21:55N 33°44' W 118°15'0 0.0
2018-Jun-13 21:25N 33°44' W 118°15'0 0.0
2018-Jun-13 20:55N 33°44' W 118°15'0 0.0
2018-Jun-13 20:25N 33°44' W 118°15'0 0.0
2018-Jun-13 19:55N 33°44' W 118°15'0 0.0
2018-Jun-13 19:25N 33°44' W 118°15'0 0.0
2018-Jun-13 18:55N 33°44' W 118°15'0 0.0
2018-Jun-13 18:25N 33°44' W 118°15'0 0.0
2018-Jun-13 17:55N 33°44' W 118°15'0 0.0
2018-Jun-13 17:25N 33°44' W 118°15'0 0.0
2018-Jun-13 16:55N 33°44' W 118°15'0 0.0
2018-Jun-13 16:25N 33°44' W 118°15'0 0.0
2018-Jun-13 15:55N 33°44' W 118°15'0 0.0
2018-Jun-13 15:25N 33°44' W 118°15'0 0.0
2018-Jun-13 14:55N 33°44' W 118°15'0 0.0
2018-Jun-13 14:25N 33°44' W 118°15'0 0.0
2018-Jun-13 13:55N 33°44' W 118°15'0 0.0
2018-Jun-13 13:25N 33°44' W 118°15'0 0.0
2018-Jun-13 12:55N 33°44' W 118°15'0 0.0
2018-Jun-13 12:25N 33°44' W 118°15'0 0.0
2018-Jun-13 11:55N 33°44' W 118°15'0 0.0
2018-Jun-13 11:25N 33°44' W 118°15'0 0.0
2018-Jun-13 10:55N 33°44' W 118°15'0 0.0
2018-Jun-13 10:25N 33°44' W 118°15'0 0.0
2018-Jun-13 09:55N 33°44' W 118°15'0 0.0
2018-Jun-13 09:25N 33°44' W 118°15'0 0.0
2018-Jun-13 08:55N 33°44' W 118°15'0 0.0
2018-Jun-13 08:25N 33°44' W 118°15'0 0.0
2018-Jun-13 07:55N 33°44' W 118°15'0 0.0
2018-Jun-13 07:25N 33°44' W 118°15'0 0.0
2018-Jun-13 06:55N 33°44' W 118°15'0 0.0
2018-Jun-13 06:25N 33°44' W 118°15'0 0.0
2018-Jun-13 05:55N 33°44' W 118°15'0 0.0
2018-Jun-13 05:25N 33°44' W 118°15'0 0.0
2018-Jun-13 04:55N 33°44' W 118°15'0 0.0
2018-Jun-13 04:25N 33°44' W 118°15'0 0.0
2018-Jun-13 03:55N 33°44' W 118°15'0 0.0
2018-Jun-13 03:25N 33°44' W 118°15'0 0.0
2018-Jun-13 02:55N 33°44' W 118°15'0 0.0
2018-Jun-13 02:25N 33°44' W 118°15'0 0.0
2018-Jun-13 01:55N 33°44' W 118°15'0 0.0
2018-Jun-13 01:25N 33°44' W 118°15'0 0.0
2018-Jun-13 00:55N 33°44' W 118°15'0 0.0
2018-Jun-13 00:25N 33°44' W 118°15'0 0.0
2018-Jun-12 23:55N 33°44' W 118°15'0 0.0
2018-Jun-12 23:25N 33°44' W 118°15'0 0.0
2018-Jun-12 22:55N 33°44' W 118°15'0 0.0
2018-Jun-12 22:25N 33°44' W 118°15'0 0.0
2018-Jun-12 22:00N 33°44' W 118°15'0 0.9
2018-Jun-12 21:30N 33°44' W 118°16'4 7.0
2018-Jun-12 21:00N 33°40' W 118°14'4 8.3
2018-Jun-12 20:30N 33°36' W 118°15'611.2
2018-Jun-12 20:01N 33°36' W 118°21'611.6
2018-Jun-12 19:30N 33°39' W 118°28'611.6
2018-Jun-12 19:01N 33°42' W 118°34'611.6
2018-Jun-12 18:30N 33°45' W 118°40'611.6
2018-Jun-12 18:00N 33°48' W 118°46'611.7
2018-Jun-12 17:29N 33°51' W 118°52'611.5
2018-Jun-12 17:00N 33°54' W 118°58'611.7
2018-Jun-12 16:30N 33°56' W 119°04'611.6
2018-Jun-12 16:01N 33°59' W 119°10'611.7
2018-Jun-12 15:30N 34°02' W 119°16'611.5
2018-Jun-12 15:00N 34°04' W 119°23'713.3
2018-Jun-12 14:29N 34°06' W 119°31'817.7
2018-Jun-12 14:00N 34°08' W 119°41'1018.9
2018-Jun-12 13:29N 34°11' W 119°53'919.3
2018-Jun-12 13:00N 34°13' W 120°03'1019.0
2018-Jun-12 12:30N 34°16' W 120°14'1018.8
2018-Jun-12 12:00N 34°18' W 120°25'918.8
2018-Jun-12 11:30N 34°21' W 120°36'1019.1
2018-Jun-12 10:58N 34°23' W 120°48'918.6
2018-Jun-12 10:29N 34°24' W 120°59'918.7
2018-Jun-12 10:00N 34°25' W 121°10'918.9
2018-Jun-12 09:30N 34°27' W 121°21'1019.1
2018-Jun-12 09:00N 34°29' W 121°32'1018.7
2018-Jun-12 08:29N 34°31' W 121°44'919.1
2018-Jun-12 07:59N 34°33' W 121°55'918.9
2018-Jun-12 07:29N 34°35' W 122°06'918.7
2018-Jun-12 07:00N 34°37' W 122°17'919.2
2018-Jun-12 06:30N 34°39' W 122°29'918.9
2018-Jun-12 06:00N 34°41' W 122°40'1019.1
2018-Jun-12 05:30N 34°43' W 122°51'1019.3
2018-Jun-12 05:00N 34°45' W 123°03'1019.4
2018-Jun-12 04:30N 34°47' W 123°14'  
Track history (hours):
 
Tides and Currents Weather Stations Pressure Air Temp Water Temp Dewpoint Dewpoint Depression Visibility Wind Speed Wind Dir Waves Ship Positions

CMA CGM G.washington

Last reported at 2018-Jun-18 13:30 UTC. Time now 2018-Jun-18 13:38 UTC.
Position N 37°48' W 122°19'.

Length 366 m; draft 12 m.

Type: Ship (hazmat cat A). MMSI: 232006508.

Date/timePositionNaut miles runAvg speedWind from/ knotsBaromVisibWave heightAir tempDewpointWater temp
2018-Jun-18 13:30N 37°48' W 122°19'0 0.0
2018-Jun-18 13:00N 37°48' W 122°19'0 0.0
2018-Jun-18 12:30N 37°48' W 122°19'0 0.0
2018-Jun-18 12:00N 37°48' W 122°19'0 0.0
2018-Jun-18 11:30N 37°48' W 122°19'0 0.0
2018-Jun-18 11:00N 37°48' W 122°19'0 0.0
2018-Jun-18 10:30N 37°48' W 122°19'0 0.0
2018-Jun-18 10:00N 37°48' W 122°19'0 0.0
2018-Jun-18 09:30N 37°48' W 122°19'0 0.0
2018-Jun-18 09:00N 37°48' W 122°19'0 0.0
2018-Jun-18 08:30N 37°48' W 122°19'0 0.0
2018-Jun-18 08:00N 37°48' W 122°19'0 0.0
2018-Jun-18 07:30N 37°48' W 122°19'0 0.0
2018-Jun-18 06:57N 37°48' W 122°19'0 0.0
2018-Jun-18 06:30N 37°48' W 122°19'0 0.0
2018-Jun-18 06:00N 37°48' W 122°19'0 0.0
2018-Jun-18 05:30N 37°48' W 122°19'0 0.0
2018-Jun-18 05:00N 37°48' W 122°19'0 0.0
2018-Jun-18 04:30N 37°48' W 122°19'0 0.0
2018-Jun-18 04:00N 37°48' W 122°19'0 0.0
2018-Jun-18 03:30N 37°48' W 122°19'0 0.0
2018-Jun-18 03:00N 37°48' W 122°19'0 0.0
2018-Jun-18 02:30N 37°48' W 122°19'0 0.2
2018-Jun-18 02:00N 37°48' W 122°19'1 2.3
2018-Jun-18 01:30N 37°48' W 122°17'1 1.9
2018-Jun-18 01:00N 37°48' W 122°19'3 5.1
2018-Jun-18 00:30N 37°48' W 122°22'5 9.1
2018-Jun-18 00:00N 37°49' W 122°27'5 9.3
2018-Jun-17 23:30N 37°47' W 122°33'611.5
2018-Jun-17 23:00N 37°45' W 122°40'5 9.7
2018-Jun-17 22:30N 37°40' W 122°40'611.6
2018-Jun-17 22:00N 37°35' W 122°40'611.5
2018-Jun-17 21:30N 37°29' W 122°40'611.7
2018-Jun-17 21:00N 37°23' W 122°40'611.8
2018-Jun-17 20:30N 37°17' W 122°40'611.9
2018-Jun-17 20:00N 37°11' W 122°39'611.2
2018-Jun-17 19:30N 37°06' W 122°37'511.0
2018-Jun-17 19:00N 37°01' W 122°34'611.7
2018-Jun-17 18:28N 36°55' W 122°31'511.4
2018-Jun-17 18:00N 36°50' W 122°29'9812.5
2018-Jun-17 10:10N 35°23' W 121°33'212.8
2018-Jun-17 10:00N 35°21' W 121°31'612.6
2018-Jun-17 09:30N 35°16' W 121°27'612.4
2018-Jun-17 09:00N 35°11' W 121°24'612.6
2018-Jun-17 08:30N 35°05' W 121°20'612.8
2018-Jun-17 08:00N 34°60' W 121°16'612.6
2018-Jun-17 07:30N 34°54' W 121°12'612.5
2018-Jun-17 07:00N 34°49' W 121°08'612.6
2018-Jun-17 06:30N 34°43' W 121°04'612.8
2018-Jun-17 06:00N 34°38' W 121°00'612.7
2018-Jun-17 05:30N 34°32' W 120°56'612.7
2018-Jun-17 05:00N 34°27' W 120°53'712.8
2018-Jun-17 04:29N 34°25' W 120°45'612.7
2018-Jun-17 03:59N 34°23' W 120°37'612.4
2018-Jun-17 03:30N 34°21' W 120°30'612.6
2018-Jun-17 03:00N 34°20' W 120°23'612.5
2018-Jun-17 02:30N 34°18' W 120°16'612.5
2018-Jun-17 02:00N 34°17' W 120°08'5 8.9
2018-Jun-17 01:29N 34°17' W 120°03'0 0.3
2018-Jun-17 00:56N 34°17' W 120°03'0 1.1
2018-Jun-17 00:29N 34°17' W 120°03'0 0.5
2018-Jun-16 23:55N 34°16' W 120°03'0 0.3
2018-Jun-16 23:27N 34°16' W 120°03'0 0.6
2018-Jun-16 22:56N 34°16' W 120°03'0 0.5
2018-Jun-16 22:29N 34°16' W 120°04'2 2.7
2018-Jun-16 21:49N 34°15' W 120°02'510.7
2018-Jun-16 21:23N 34°14' W 119°56'411.7
2018-Jun-16 21:00N 34°13' W 119°51'611.5
2018-Jun-16 20:29N 34°11' W 119°44'611.5
2018-Jun-16 19:56N 34°10' W 119°37'512.1
2018-Jun-16 19:30N 34°08' W 119°31'612.2
2018-Jun-16 19:00N 34°07' W 119°24'612.3
2018-Jun-16 18:30N 34°04' W 119°17'612.0
2018-Jun-16 17:59N 34°02' W 119°10'611.8
2018-Jun-16 17:26N 33°59' W 119°03'511.6
2018-Jun-16 17:00N 33°56' W 118°58'611.5
2018-Jun-16 16:30N 33°53' W 118°52'611.5
2018-Jun-16 16:00N 33°50' W 118°46'611.5
2018-Jun-16 15:30N 33°48' W 118°40'611.7
2018-Jun-16 15:00N 33°45' W 118°34'611.5
2018-Jun-16 14:30N 33°42' W 118°28'611.4
2018-Jun-16 14:00N 33°39' W 118°22'5 9.8
2018-Jun-16 13:30N 33°40' W 118°16'3 6.3
2018-Jun-16 13:00N 33°43' W 118°15'1 2.1
2018-Jun-16 12:28N 33°44' W 118°15'0 0.0
2018-Jun-16 11:58N 33°44' W 118°15'0 0.0
2018-Jun-16 11:28N 33°44' W 118°15'0 0.0
2018-Jun-16 10:58N 33°44' W 118°15'0 0.0
2018-Jun-16 10:28N 33°44' W 118°15'0 0.0
2018-Jun-16 09:58N 33°44' W 118°15'0 0.0
2018-Jun-16 09:28N 33°44' W 118°15'0 0.0
2018-Jun-16 08:58N 33°44' W 118°15'0 0.0
2018-Jun-16 08:28N 33°44' W 118°15'0 0.0
2018-Jun-16 07:58N 33°44' W 118°15'0 0.0
2018-Jun-16 07:28N 33°44' W 118°15'0 0.0
2018-Jun-16 06:55N 33°44' W 118°15'0 0.0
2018-Jun-16 06:25N 33°44' W 118°15'0 0.0
2018-Jun-16 05:58N 33°44' W 118°15'0 0.0
2018-Jun-16 05:28N 33°44' W 118°15'0 0.0
2018-Jun-16 04:58N 33°44' W 118°15'0 0.0
2018-Jun-16 04:28N 33°44' W 118°15'0 0.0
2018-Jun-16 03:55N 33°44' W 118°15'0 0.0
2018-Jun-16 03:25N 33°44' W 118°15'0 0.0
2018-Jun-16 02:58N 33°44' W 118°15'0 0.0
2018-Jun-16 02:28N 33°44' W 118°15'0 0.0
2018-Jun-16 01:58N 33°44' W 118°15'0 0.0
2018-Jun-16 01:28N 33°44' W 118°15'0 0.0
2018-Jun-16 00:58N 33°44' W 118°15'0 0.0
2018-Jun-16 00:28N 33°44' W 118°15'0 0.0
2018-Jun-15 23:58N 33°44' W 118°15'0 0.0
2018-Jun-15 23:28N 33°44' W 118°15'0 0.0
2018-Jun-15 22:58N 33°44' W 118°15'0 0.0
2018-Jun-15 22:28N 33°44' W 118°15'0 0.0
2018-Jun-15 21:58N 33°44' W 118°15'0 0.0
2018-Jun-15 21:28N 33°44' W 118°15'0 0.0
2018-Jun-15 20:58N 33°44' W 118°15'0 0.0
2018-Jun-15 20:28N 33°44' W 118°15'0 0.0
2018-Jun-15 19:58N 33°44' W 118°15'0 0.0
2018-Jun-15 19:28N 33°44' W 118°15'0 0.0
2018-Jun-15 18:58N 33°44' W 118°15'0 0.0
2018-Jun-15 18:25N 33°44' W 118°15'0 0.0
2018-Jun-15 17:58N 33°44' W 118°15'0 0.0
2018-Jun-15 17:29N 33°44' W 118°15'0 0.0
2018-Jun-15 16:59N 33°44' W 118°15'0 0.0
2018-Jun-15 16:29N 33°44' W 118°15'0 0.0
2018-Jun-15 15:59N 33°44' W 118°15'0 0.0
2018-Jun-15 15:29N 33°44' W 118°15'0 0.0
2018-Jun-15 14:59N 33°44' W 118°15'0 0.0
2018-Jun-15 14:29N 33°44' W 118°15'0 0.0
2018-Jun-15 13:59N 33°44' W 118°15'0 0.0
2018-Jun-15 13:29N 33°44' W 118°15'0 0.0
2018-Jun-15 12:59N 33°44' W 118°15'0 0.0
2018-Jun-15 12:29N 33°44' W 118°15'0 0.0
2018-Jun-15 11:59N 33°44' W 118°15'0 0.0
2018-Jun-15 11:29N 33°44' W 118°15'0 0.0
2018-Jun-15 10:59N 33°44' W 118°15'0 0.0
2018-Jun-15 10:29N 33°44' W 118°15'0 0.0
2018-Jun-15 09:56N 33°44' W 118°15'0 0.0
2018-Jun-15 09:29N 33°44' W 118°15'0 0.0
2018-Jun-15 08:59N 33°44' W 118°15'0 0.0
2018-Jun-15 08:23N 33°44' W 118°15'0 0.0
2018-Jun-15 07:59N 33°44' W 118°15'0 0.0
2018-Jun-15 07:29N 33°44' W 118°15'0 0.0
2018-Jun-15 06:59N 33°44' W 118°15'0 0.0
2018-Jun-15 06:29N 33°44' W 118°15'0 0.0
2018-Jun-15 05:59N 33°44' W 118°15'0 0.0
2018-Jun-15 05:29N 33°44' W 118°15'0 0.0
2018-Jun-15 04:59N 33°44' W 118°15'0 0.0
2018-Jun-15 04:29N 33°44' W 118°15'0 0.0
2018-Jun-15 03:59N 33°44' W 118°15'0 0.0
2018-Jun-15 03:29N 33°44' W 118°15'0 0.0
2018-Jun-15 02:56N 33°44' W 118°15'0 0.0
2018-Jun-15 02:29N 33°44' W 118°15'0 0.0
2018-Jun-15 01:59N 33°44' W 118°15'0 0.0
2018-Jun-15 01:29N 33°44' W 118°15'0 0.0
2018-Jun-15 00:59N 33°44' W 118°15'0 0.0
2018-Jun-15 00:29N 33°44' W 118°15'0 0.0
2018-Jun-14 23:59N 33°44' W 118°15'0 0.0
2018-Jun-14 23:30N 33°44' W 118°15'0 0.0
2018-Jun-14 23:00N 33°44' W 118°15'0 0.0
2018-Jun-14 22:30N 33°44' W 118°15'0 0.0
2018-Jun-14 22:00N 33°44' W 118°15'0 0.0
2018-Jun-14 21:30N 33°44' W 118°15'0 0.0
2018-Jun-14 20:59N 33°44' W 118°15'0 0.0
2018-Jun-14 20:30N 33°44' W 118°15'0 0.0
2018-Jun-14 20:00N 33°44' W 118°15'0 0.0
2018-Jun-14 19:30N 33°44' W 118°15'0 0.0
2018-Jun-14 18:59N 33°44' W 118°15'0 0.0
2018-Jun-14 18:29N 33°44' W 118°15'0 0.0
2018-Jun-14 18:00N 33°44' W 118°15'0 0.0
2018-Jun-14 17:30N 33°44' W 118°15'0 0.0
2018-Jun-14 17:00N 33°44' W 118°15'0 0.0
2018-Jun-14 16:30N 33°44' W 118°15'0 0.0
2018-Jun-14 16:00N 33°44' W 118°15'0 0.0
2018-Jun-14 15:29N 33°44' W 118°15'0 0.0
2018-Jun-14 14:59N 33°44' W 118°15'0 0.0
2018-Jun-14 14:30N 33°44' W 118°15'0 0.0
2018-Jun-14 14:00N 33°44' W 118°15'0 0.0
2018-Jun-14 13:27N 33°44' W 118°15'0 0.0
2018-Jun-14 12:59N 33°44' W 118°15'0 0.0
2018-Jun-14 12:30N 33°44' W 118°15'0 0.0
2018-Jun-14 12:00N 33°44' W 118°15'0 0.0
2018-Jun-14 11:29N 33°44' W 118°15'0 0.0
2018-Jun-14 10:59N 33°44' W 118°15'0 0.0
2018-Jun-14 10:30N 33°44' W 118°15'0 0.0
2018-Jun-14 10:00N 33°44' W 118°15'0 0.0
2018-Jun-14 09:29N 33°44' W 118°15'0 0.0
2018-Jun-14 08:59N 33°44' W 118°15'0 0.0
2018-Jun-14 08:30N 33°44' W 118°15'0 0.0
2018-Jun-14 07:59N 33°44' W 118°15'0 0.0
2018-Jun-14 07:30N 33°44' W 118°15'0 0.0
2018-Jun-14 06:59N 33°44' W 118°15'0 0.0
2018-Jun-14 06:30N 33°44' W 118°15'0 0.0
2018-Jun-14 06:00N 33°44' W 118°15'0 0.0
2018-Jun-14 05:29N 33°44' W 118°15'0 0.0
2018-Jun-14 05:00N 33°44' W 118°15'0 0.0
2018-Jun-14 04:30N 33°44' W 118°15'0 0.0
2018-Jun-14 04:00N 33°44' W 118°15'0 0.0
2018-Jun-14 03:30N 33°44' W 118°15'0 0.0
2018-Jun-14 02:56N 33°44' W 118°15'0 0.0
2018-Jun-14 02:29N 33°44' W 118°15'0 0.0
2018-Jun-14 01:59N 33°44' W 118°15'0 0.0
2018-Jun-14 01:29N 33°44' W 118°15'0 0.0
2018-Jun-14 01:00N 33°44' W 118°15'0 0.0
2018-Jun-14 00:29N 33°44' W 118°15'0 0.0
2018-Jun-14 00:00N 33°44' W 118°15'0 0.0
2018-Jun-13 23:29N 33°44' W 118°15'0 0.0
2018-Jun-13 23:00N 33°44' W 118°15'0 0.0
2018-Jun-13 22:25N 33°44' W 118°15'0 0.0
2018-Jun-13 21:55N 33°44' W 118°15'0 0.0
2018-Jun-13 21:25N 33°44' W 118°15'0 0.0
2018-Jun-13 20:55N 33°44' W 118°15'0 0.0
2018-Jun-13 20:25N 33°44' W 118°15'0 0.0
2018-Jun-13 19:55N 33°44' W 118°15'0 0.0
2018-Jun-13 19:25N 33°44' W 118°15'0 0.0
2018-Jun-13 18:55N 33°44' W 118°15'0 0.0
2018-Jun-13 18:25N 33°44' W 118°15'0 0.0
2018-Jun-13 17:55N 33°44' W 118°15'0 0.0
2018-Jun-13 17:25N 33°44' W 118°15'0 0.0
2018-Jun-13 16:55N 33°44' W 118°15'0 0.0
2018-Jun-13 16:25N 33°44' W 118°15'0 0.0
2018-Jun-13 15:55N 33°44' W 118°15'0 0.0
2018-Jun-13 15:25N 33°44' W 118°15'0 0.0
2018-Jun-13 14:55N 33°44' W 118°15'0 0.0
2018-Jun-13 14:25N 33°44' W 118°15'0 0.0
2018-Jun-13 13:55N 33°44' W 118°15'0 0.0
2018-Jun-13 13:25N 33°44' W 118°15'0 0.0
2018-Jun-13 12:55N 33°44' W 118°15'0 0.0
2018-Jun-13 12:25N 33°44' W 118°15'0 0.0
2018-Jun-13 11:55N 33°44' W 118°15'0 0.0
2018-Jun-13 11:25N 33°44' W 118°15'0 0.0
2018-Jun-13 10:55N 33°44' W 118°15'0 0.0
2018-Jun-13 10:25N 33°44' W 118°15'0 0.0
2018-Jun-13 09:55N 33°44' W 118°15'0 0.0
2018-Jun-13 09:25N 33°44' W 118°15'0 0.0
2018-Jun-13 08:55N 33°44' W 118°15'0 0.0
2018-Jun-13 08:25N 33°44' W 118°15'0 0.0
2018-Jun-13 07:55N 33°44' W 118°15'0 0.0
2018-Jun-13 07:25N 33°44' W 118°15'0 0.0
2018-Jun-13 06:55N 33°44' W 118°15'0 0.0
2018-Jun-13 06:25N 33°44' W 118°15'0 0.0
2018-Jun-13 05:55N 33°44' W 118°15'0 0.0
2018-Jun-13 05:25N 33°44' W 118°15'0 0.0
2018-Jun-13 04:55N 33°44' W 118°15'0 0.0
2018-Jun-13 04:25N 33°44' W 118°15'0 0.0
2018-Jun-13 03:55N 33°44' W 118°15'0 0.0
2018-Jun-13 03:25N 33°44' W 118°15'0 0.0
2018-Jun-13 02:55N 33°44' W 118°15'0 0.0
2018-Jun-13 02:25N 33°44' W 118°15'0 0.0
2018-Jun-13 01:55N 33°44' W 118°15'0 0.0
2018-Jun-13 01:25N 33°44' W 118°15'0 0.0
2018-Jun-13 00:55N 33°44' W 118°15'0 0.0
2018-Jun-13 00:25N 33°44' W 118°15'0 0.0
2018-Jun-12 23:55N 33°44' W 118°15'0 0.0
2018-Jun-12 23:25N 33°44' W 118°15'0 0.0
2018-Jun-12 22:55N 33°44' W 118°15'0 0.0
2018-Jun-12 22:25N 33°44' W 118°15'0 0.0
2018-Jun-12 22:00N 33°44' W 118°15'0 0.9
2018-Jun-12 21:30N 33°44' W 118°16'4 7.0
2018-Jun-12 21:00N 33°40' W 118°14'4 8.3
2018-Jun-12 20:30N 33°36' W 118°15'611.2
2018-Jun-12 20:01N 33°36' W 118°21'611.6
2018-Jun-12 19:30N 33°39' W 118°28'611.6
2018-Jun-12 19:01N 33°42' W 118°34'611.6
2018-Jun-12 18:30N 33°45' W 118°40'611.6
2018-Jun-12 18:00N 33°48' W 118°46'611.7
2018-Jun-12 17:29N 33°51' W 118°52'611.5
2018-Jun-12 17:00N 33°54' W 118°58'611.7
2018-Jun-12 16:30N 33°56' W 119°04'611.6
2018-Jun-12 16:01N 33°59' W 119°10'611.7
2018-Jun-12 15:30N 34°02' W 119°16'611.5
2018-Jun-12 15:00N 34°04' W 119°23'713.3
2018-Jun-12 14:29N 34°06' W 119°31'817.7
2018-Jun-12 14:00N 34°08' W 119°41'1018.9
2018-Jun-12 13:29N 34°11' W 119°53'919.3
2018-Jun-12 13:00N 34°13' W 120°03'1019.0
2018-Jun-12 12:30N 34°16' W 120°14'1018.8
2018-Jun-12 12:00N 34°18' W 120°25'918.8
2018-Jun-12 11:30N 34°21' W 120°36'1019.1
2018-Jun-12 10:58N 34°23' W 120°48'918.6
2018-Jun-12 10:29N 34°24' W 120°59'918.7
2018-Jun-12 10:00N 34°25' W 121°10'918.9
2018-Jun-12 09:30N 34°27' W 121°21'1019.1
2018-Jun-12 09:00N 34°29' W 121°32'1018.7
2018-Jun-12 08:29N 34°31' W 121°44'919.1
2018-Jun-12 07:59N 34°33' W 121°55'918.9
2018-Jun-12 07:29N 34°35' W 122°06'918.7
2018-Jun-12 07:00N 34°37' W 122°17'919.2
2018-Jun-12 06:30N 34°39' W 122°29'918.9
2018-Jun-12 06:00N 34°41' W 122°40'1019.1
2018-Jun-12 05:30N 34°43' W 122°51'1019.3
2018-Jun-12 05:00N 34°45' W 123°03'1019.4
2018-Jun-12 04:30N 34°47' W 123°14'  

Dump ship's entire track history